sensor_id;sensor_type;location;lat;lon;timestamp;pressure;altitude;pressure_sealevel;temperature;humidity
77537;BME280;67783;51.656;16.106;2024-03-02T00:01:29;100891.66;;;13.01;73.50
77537;BME280;67783;51.656;16.106;2024-03-02T00:04:31;100892.15;;;13.06;72.20
77537;BME280;67783;51.656;16.106;2024-03-02T00:07:42;100887.74;;;13.05;72.67
77537;BME280;67783;51.656;16.106;2024-03-02T00:11:00;100892.40;;;13.03;73.72
77537;BME280;67783;51.656;16.106;2024-03-02T00:14:03;100885.05;;;13.05;72.24
77537;BME280;67783;51.656;16.106;2024-03-02T00:17:16;100885.45;;;13.00;73.08
77537;BME280;67783;51.656;16.106;2024-03-02T00:20:26;100884.59;;;13.00;73.97
77537;BME280;67783;51.656;16.106;2024-03-02T00:23:31;100885.05;;;13.05;72.62
77537;BME280;67783;51.656;16.106;2024-03-02T00:26:32;100881.13;;;13.09;72.84
77537;BME280;67783;51.656;16.106;2024-03-02T00:29:37;100877.46;;;13.10;72.53
77537;BME280;67783;51.656;16.106;2024-03-02T00:32:43;100883.11;;;13.07;72.95
77537;BME280;67783;51.656;16.106;2024-03-02T00:35:50;100877.72;;;13.07;73.74
77537;BME280;67783;51.656;16.106;2024-03-02T00:38:55;100879.30;;;13.09;72.51
77537;BME280;67783;51.656;16.106;2024-03-02T00:42:01;100876.75;;;13.08;72.95
77537;BME280;67783;51.656;16.106;2024-03-02T00:45:14;100879.45;;;13.08;73.96
77537;BME280;67783;51.656;16.106;2024-03-02T00:48:18;100881.13;;;13.09;72.71
77537;BME280;67783;51.656;16.106;2024-03-02T00:51:29;100873.31;;;13.06;73.00
77537;BME280;67783;51.656;16.106;2024-03-02T00:54:37;100882.13;;;13.08;73.96
77537;BME280;67783;51.656;16.106;2024-03-02T00:57:42;100877.46;;;13.10;72.53
77537;BME280;67783;51.656;16.106;2024-03-02T01:00:47;100878.09;;;13.02;73.30
77537;BME280;67783;51.656;16.106;2024-03-02T01:03:49;100877.98;;;13.04;73.10
77537;BME280;67783;51.656;16.106;2024-03-02T01:06:54;100876.38;;;13.01;73.08
77537;BME280;67783;51.656;16.106;2024-03-02T01:10:02;100881.28;;;12.96;74.33
77537;BME280;67783;51.656;16.106;2024-03-02T01:13:07;100875.52;;;13.01;73.12
77537;BME280;67783;51.656;16.106;2024-03-02T01:16:12;100875.16;;;12.94;73.70
77537;BME280;67783;51.656;16.106;2024-03-02T01:19:14;100874.91;;;12.97;73.46
77537;BME280;67783;51.656;16.106;2024-03-02T01:22:19;100871.35;;;12.96;73.22
77537;BME280;67783;51.656;16.106;2024-03-02T01:25:29;100862.31;;;12.98;73.56
77537;BME280;67783;51.656;16.106;2024-03-02T01:28:34;100864.89;;;12.99;72.94
77537;BME280;67783;51.656;16.106;2024-03-02T01:31:40;100862.31;;;12.98;73.14
77537;BME280;67783;51.656;16.106;2024-03-02T01:34:51;100868.80;;;12.95;74.13
77537;BME280;67783;51.656;16.106;2024-03-02T01:37:55;100869.41;;;12.99;72.91
77537;BME280;67783;51.656;16.106;2024-03-02T01:40:56;100867.69;;;12.98;73.25
77537;BME280;67783;51.656;16.106;2024-03-02T01:44:01;100864.02;;;12.99;73.08
77537;BME280;67783;51.656;16.106;2024-03-02T01:47:13;100857.89;;;12.96;73.09
77537;BME280;67783;51.656;16.106;2024-03-02T01:50:25;100854.23;;;12.98;73.87
77537;BME280;67783;51.656;16.106;2024-03-02T01:53:27;100854.12;;;12.99;72.99
77537;BME280;67783;51.656;16.106;2024-03-02T01:56:31;100851.44;;;12.99;72.99
77537;BME280;67783;51.656;16.106;2024-03-02T01:59:47;100857.30;;;12.93;74.02
77537;BME280;67783;51.656;16.106;2024-03-02T02:02:58;100851.80;;;12.94;73.12
77537;BME280;67783;51.656;16.106;2024-03-02T02:06:02;100843.98;;;12.91;73.31
77537;BME280;67783;51.656;16.106;2024-03-02T02:09:11;100850.59;;;12.87;74.25
77537;BME280;67783;51.656;16.106;2024-03-02T02:12:16;100850.08;;;12.93;73.24
77537;BME280;67783;51.656;16.106;2024-03-02T02:15:26;100853.39;;;12.86;73.67
77537;BME280;67783;51.656;16.106;2024-03-02T02:18:35;100850.95;;;12.83;74.39
77537;BME280;67783;51.656;16.106;2024-03-02T02:21:46;100857.55;;;12.79;73.88
77537;BME280;67783;51.656;16.106;2024-03-02T02:24:44;100858.63;;;12.76;74.16
77537;BME280;67783;51.656;16.106;2024-03-02T02:28:05;100859.86;;;12.72;74.92
77537;BME280;67783;51.656;16.106;2024-03-02T02:31:13;100854.72;;;12.80;73.65
77537;BME280;67783;51.656;16.106;2024-03-02T02:34:32;100854.98;;;12.77;73.89
77537;BME280;67783;51.656;16.106;2024-03-02T02:40:48;100848.87;;;12.86;73.73
77537;BME280;67783;51.656;16.106;2024-03-02T02:43:52;100851.05;;;12.81;73.94
77537;BME280;67783;51.656;16.106;2024-03-02T02:46:59;100856.70;;;12.78;74.65
77537;BME280;67783;51.656;16.106;2024-03-02T02:53:08;100845.69;;;12.81;74.03
77537;BME280;67783;51.656;16.106;2024-03-02T02:56:26;100847.66;;;12.79;74.63
77537;BME280;67783;51.656;16.106;2024-03-02T02:59:28;100846.89;;;12.88;73.75
77537;BME280;67783;51.656;16.106;2024-03-02T03:02:32;100846.18;;;12.86;73.87
77537;BME280;67783;51.656;16.106;2024-03-02T03:05:34;100842.26;;;12.90;73.47
77537;BME280;67783;51.656;16.106;2024-03-02T03:08:40;100843.49;;;12.86;73.81
77537;BME280;67783;51.656;16.106;2024-03-02T03:11:45;100848.87;;;12.86;74.17
77537;BME280;67783;51.656;16.106;2024-03-02T03:14:46;100839.58;;;12.90;73.50
77537;BME280;67783;51.656;16.106;2024-03-02T03:17:58;100838.10;;;12.86;73.68
77537;BME280;67783;51.656;16.106;2024-03-02T03:21:13;100840.54;;;12.89;74.00
77537;BME280;67783;51.656;16.106;2024-03-02T03:24:15;100837.59;;;12.92;73.37
77537;BME280;67783;51.656;16.106;2024-03-02T03:27:17;100840.29;;;12.92;73.44
77537;BME280;67783;51.656;16.106;2024-03-02T03:30:18;100842.12;;;12.92;73.22
77537;BME280;67783;51.656;16.106;2024-03-02T03:33:28;100836.02;;;12.90;73.42
77537;BME280;67783;51.656;16.106;2024-03-02T03:36:41;100825.63;;;12.85;74.26
77537;BME280;67783;51.656;16.106;2024-03-02T03:39:42;100830.15;;;12.85;73.76
77537;BME280;67783;51.656;16.106;2024-03-02T03:42:45;100829.04;;;12.76;73.97
77537;BME280;67783;51.656;16.106;2024-03-02T03:45:47;100827.61;;;12.83;73.48
77537;BME280;67783;51.656;16.106;2024-03-02T03:48:55;100836.64;;;12.82;73.63
77537;BME280;67783;51.656;16.106;2024-03-02T03:51:57;100833.95;;;12.82;73.94
77537;BME280;67783;51.656;16.106;2024-03-02T03:55:01;100834.92;;;12.81;73.61
77537;BME280;67783;51.656;16.106;2024-03-02T03:58:02;100839.58;;;12.79;73.95
77537;BME280;67783;51.656;16.106;2024-03-02T04:01:04;100840.80;;;12.86;73.43
77537;BME280;67783;51.656;16.106;2024-03-02T04:04:05;100841.05;;;12.83;73.69
77537;BME280;67783;51.656;16.106;2024-03-02T04:07:17;100839.19;;;12.84;74.04
77537;BME280;67783;51.656;16.106;2024-03-02T04:10:19;100840.05;;;12.84;73.58
77537;BME280;67783;51.656;16.106;2024-03-02T04:13:22;100841.42;;;12.79;73.83
77537;BME280;67783;51.656;16.106;2024-03-02T04:16:26;100845.19;;;12.76;73.75
77537;BME280;67783;51.656;16.106;2024-03-02T04:19:29;100853.50;;;12.73;73.91
77537;BME280;67783;51.656;16.106;2024-03-02T04:22:41;100856.67;;;12.67;74.55
77537;BME280;67783;51.656;16.106;2024-03-02T04:25:42;100858.52;;;12.67;73.99
77537;BME280;67783;51.656;16.106;2024-03-02T04:28:47;100862.66;;;12.60;74.38
77537;BME280;67783;51.656;16.106;2024-03-02T04:31:57;100861.57;;;12.62;73.92
77537;BME280;67783;51.656;16.106;2024-03-02T04:34:56;100873.31;;;12.61;74.02
77537;BME280;67783;51.656;16.106;2024-03-02T04:38:04;100871.73;;;12.59;74.68
77537;BME280;67783;51.656;16.106;2024-03-02T04:41:06;100880.63;;;12.59;73.94
77537;BME280;67783;51.656;16.106;2024-03-02T04:44:08;100881.38;;;12.61;73.98
77537;BME280;67783;51.656;16.106;2024-03-02T04:47:09;100879.41;;;12.63;73.71
77537;BME280;67783;51.656;16.106;2024-03-02T04:50:14;100885.03;;;12.60;74.10
77537;BME280;67783;51.656;16.106;2024-03-02T04:53:22;100880.63;;;12.59;74.52
77537;BME280;67783;51.656;16.106;2024-03-02T04:56:23;100881.13;;;12.64;73.83
77537;BME280;67783;51.656;16.106;2024-03-02T04:59:39;100890.41;;;12.60;74.14
77537;BME280;67783;51.656;16.106;2024-03-02T05:02:48;100888.48;;;12.62;74.19
77537;BME280;67783;51.656;16.106;2024-03-02T05:05:50;100892.02;;;12.63;73.90
77537;BME280;67783;51.656;16.106;2024-03-02T05:08:52;100892.84;;;12.52;74.52
77537;BME280;67783;51.656;16.106;2024-03-02T05:12:00;100890.91;;;12.54;74.04
77537;BME280;67783;51.656;16.106;2024-03-02T05:15:13;100899.44;;;12.48;74.34
77537;BME280;67783;51.656;16.106;2024-03-02T05:18:17;100902.02;;;12.49;74.91
77537;BME280;67783;51.656;16.106;2024-03-02T05:21:18;100904.47;;;12.53;74.22
77537;BME280;67783;51.656;16.106;2024-03-02T05:24:22;100903.35;;;12.55;74.52
77537;BME280;67783;51.656;16.106;2024-03-02T05:27:23;100908.38;;;12.60;73.93
77537;BME280;67783;51.656;16.106;2024-03-02T05:30:30;100913.75;;;12.60;74.03
77537;BME280;67783;51.656;16.106;2024-03-02T05:33:43;100919.75;;;12.63;74.36
77537;BME280;67783;51.656;16.106;2024-03-02T05:36:50;100922.23;;;12.66;73.81
77537;BME280;67783;51.656;16.106;2024-03-02T05:39:51;100919.64;;;12.65;74.04
77537;BME280;67783;51.656;16.106;2024-03-02T05:42:53;100921.98;;;12.69;73.75
77537;BME280;67783;51.656;16.106;2024-03-02T05:45:54;100921.87;;;12.71;73.83
77537;BME280;67783;51.656;16.106;2024-03-02T05:49:02;100929.69;;;12.74;73.92
77537;BME280;67783;51.656;16.106;2024-03-02T05:52:10;100925.68;;;12.79;73.47
77537;BME280;67783;51.656;16.106;2024-03-02T05:55:13;100923.59;;;12.83;73.44
77537;BME280;67783;51.656;16.106;2024-03-02T05:58:14;100919.07;;;12.83;73.25
77537;BME280;67783;51.656;16.106;2024-03-02T06:01:28;100920.41;;;12.78;73.42
77537;BME280;67783;51.656;16.106;2024-03-02T06:04:38;100935.69;;;12.77;73.52
77537;BME280;67783;51.656;16.106;2024-03-02T06:07:42;100936.04;;;12.84;73.21
77537;BME280;67783;51.656;16.106;2024-03-02T06:10:49;100942.64;;;12.80;73.26
77537;BME280;67783;51.656;16.106;2024-03-02T06:14:00;100943.75;;;12.77;73.40
77537;BME280;67783;51.656;16.106;2024-03-02T06:17:01;100934.47;;;12.81;73.18
77537;BME280;67783;51.656;16.106;2024-03-02T06:20:03;100938.38;;;12.77;73.22
77537;BME280;67783;51.656;16.106;2024-03-02T06:23:05;100932.64;;;12.82;72.99
77537;BME280;67783;51.656;16.106;2024-03-02T06:26:14;100928.59;;;12.76;73.01
77537;BME280;67783;51.656;16.106;2024-03-02T06:29:20;100932.99;;;12.66;73.22
77537;BME280;67783;51.656;16.106;2024-03-02T06:32:22;100939.08;;;12.68;73.07
77537;BME280;67783;51.656;16.106;2024-03-02T06:35:26;100943.74;;;12.66;73.13
77537;BME280;67783;51.656;16.106;2024-03-02T06:38:27;100944.71;;;12.65;72.99
77537;BME280;67783;51.656;16.106;2024-03-02T06:41:35;100944.09;;;12.62;73.04
77537;BME280;67783;51.656;16.106;2024-03-02T06:44:44;100947.99;;;12.58;73.11
77537;BME280;67783;51.656;16.106;2024-03-02T06:47:45;100944.09;;;12.62;72.91
77537;BME280;67783;51.656;16.106;2024-03-02T06:50:47;100948.86;;;12.58;73.21
77537;BME280;67783;51.656;16.106;2024-03-02T06:53:49;100945.68;;;12.64;72.80
77537;BME280;67783;51.656;16.106;2024-03-02T06:56:50;100953.88;;;12.63;72.71
77537;BME280;67783;51.656;16.106;2024-03-02T07:00:02;100958.05;;;12.67;72.39
77537;BME280;67783;51.656;16.106;2024-03-02T07:03:10;100946.30;;;12.68;72.40
77537;BME280;67783;51.656;16.106;2024-03-02T07:06:16;100948.26;;;12.66;72.40
77537;BME280;67783;51.656;16.106;2024-03-02T07:09:32;100945.06;;;12.61;72.16
77537;BME280;67783;51.656;16.106;2024-03-02T07:12:33;100946.89;;;12.60;72.37
77537;BME280;67783;51.656;16.106;2024-03-02T07:15:38;100952.27;;;12.60;72.40
77537;BME280;67783;51.656;16.106;2024-03-02T07:19:01;100958.40;;;12.62;72.25
77537;BME280;67783;51.656;16.106;2024-03-02T07:22:09;100951.91;;;12.65;72.29
77537;BME280;67783;51.656;16.106;2024-03-02T07:25:11;100955.47;;;12.65;72.32
77537;BME280;67783;51.656;16.106;2024-03-02T07:28:23;100961.57;;;12.67;72.08
77537;BME280;67783;51.656;16.106;2024-03-02T07:31:29;100957.67;;;12.71;72.13
77537;BME280;67783;51.656;16.106;2024-03-02T07:34:33;100955.37;;;12.67;72.21
77537;BME280;67783;51.656;16.106;2024-03-02T07:37:37;100958.66;;;12.70;72.11
77537;BME280;67783;51.656;16.106;2024-03-02T07:40:38;100967.81;;;12.68;72.18
77537;BME280;67783;51.656;16.106;2024-03-02T07:43:52;100964.05;;;12.70;71.93
77537;BME280;67783;51.656;16.106;2024-03-02T07:46:53;100969.07;;;12.75;72.04
77537;BME280;67783;51.656;16.106;2024-03-02T07:49:55;100983.49;;;12.74;72.09
77537;BME280;67783;51.656;16.106;2024-03-02T07:53:02;100989.02;;;12.83;71.96
77537;BME280;67783;51.656;16.106;2024-03-02T07:56:07;100990.98;;;12.92;71.88
77537;BME280;67783;51.656;16.106;2024-03-02T07:59:12;100995.90;;;12.99;71.47
77537;BME280;67783;51.656;16.106;2024-03-02T08:02:16;100992.27;;;13.11;71.50
77537;BME280;67783;51.656;16.106;2024-03-02T08:05:26;100987.60;;;13.13;71.30
77537;BME280;67783;51.656;16.106;2024-03-02T08:08:39;100986.41;;;13.17;71.17
77537;BME280;67783;51.656;16.106;2024-03-02T08:11:43;100988.13;;;13.29;71.20
77537;BME280;67783;51.656;16.106;2024-03-02T08:15:01;100983.60;;;13.40;71.15
77537;BME280;67783;51.656;16.106;2024-03-02T08:18:10;100909.28;;;12.93;70.58
77537;BME280;67783;51.656;16.106;2024-03-02T08:21:24;100992.51;;;13.74;70.49
77537;BME280;67783;51.656;16.106;2024-03-02T08:24:29;100992.48;;;13.85;70.02
77537;BME280;67783;51.656;16.106;2024-03-02T08:27:41;100990.72;;;14.07;69.16
77537;BME280;67783;51.656;16.106;2024-03-02T08:30:46;100989.97;;;14.16;69.17
77537;BME280;67783;51.656;16.106;2024-03-02T08:34:07;100995.09;;;14.19;68.82
77537;BME280;67783;51.656;16.106;2024-03-02T08:37:20;101001.94;;;14.23;68.58
77537;BME280;67783;51.656;16.106;2024-03-02T08:40:35;100999.11;;;14.36;67.91
77537;BME280;67783;51.656;16.106;2024-03-02T08:43:53;100997.95;;;14.49;68.17
77537;BME280;67783;51.656;16.106;2024-03-02T08:47:03;101002.70;;;14.57;67.67
77537;BME280;67783;51.656;16.106;2024-03-02T08:50:18;101009.20;;;14.54;66.17
77537;BME280;67783;51.656;16.106;2024-03-02T08:53:41;101004.75;;;14.64;65.48
77537;BME280;67783;51.656;16.106;2024-03-02T08:56:55;101008.24;;;14.76;66.53
77537;BME280;67783;51.656;16.106;2024-03-02T09:00:19;101001.20;;;14.85;65.80
77537;BME280;67783;51.656;16.106;2024-03-02T09:03:27;101001.39;;;14.93;65.60
77537;BME280;67783;51.656;16.106;2024-03-02T09:06:49;101006.01;;;15.02;64.22
77537;BME280;67783;51.656;16.106;2024-03-02T09:10:05;101010.24;;;15.25;66.12
77537;BME280;67783;51.656;16.106;2024-03-02T09:13:20;101004.56;;;15.28;64.20
77537;BME280;67783;51.656;16.106;2024-03-02T09:16:29;101010.43;;;15.33;63.12
77537;BME280;67783;51.656;16.106;2024-03-02T09:19:44;101010.94;;;15.48;65.04
77537;BME280;67783;51.656;16.106;2024-03-02T09:23:07;101008.16;;;15.59;63.70
77537;BME280;67783;51.656;16.106;2024-03-02T09:26:22;101013.04;;;15.65;63.61
77537;BME280;67783;51.656;16.106;2024-03-02T09:29:42;101023.05;;;15.84;61.48
77537;BME280;67783;51.656;16.106;2024-03-02T09:36:23;101017.43;;;16.06;63.18
77537;BME280;67783;51.656;16.106;2024-03-02T09:39:29;101015.74;;;16.14;62.28
77537;BME280;67783;51.656;16.106;2024-03-02T09:42:31;101018.85;;;16.20;61.98
77537;BME280;67783;51.656;16.106;2024-03-02T09:45:34;101013.16;;;16.13;61.97
77537;BME280;67783;51.656;16.106;2024-03-02T09:48:45;101016.85;;;16.12;60.59
77537;BME280;67783;51.656;16.106;2024-03-02T09:51:48;101006.33;;;16.09;61.98
77537;BME280;67783;51.656;16.106;2024-03-02T09:54:50;101012.43;;;16.01;61.98
77537;BME280;67783;51.656;16.106;2024-03-02T09:57:51;101013.45;;;16.10;62.56
77537;BME280;67783;51.656;16.106;2024-03-02T10:00:53;101008.62;;;16.13;61.22
77537;BME280;67783;51.656;16.106;2024-03-02T10:04:05;101013.59;;;16.28;59.27
77537;BME280;67783;51.656;16.106;2024-03-02T10:07:15;101003.36;;;16.41;61.48
77537;BME280;67783;51.656;16.106;2024-03-02T10:10:16;101002.66;;;16.39;60.30
77537;BME280;67783;51.656;16.106;2024-03-02T10:13:18;101003.78;;;16.36;59.50
77537;BME280;67783;51.656;16.106;2024-03-02T10:16:19;100999.23;;;16.46;59.02
77537;BME280;67783;51.656;16.106;2024-03-02T10:19:24;101003.50;;;16.49;56.85
77537;BME280;67783;51.656;16.106;2024-03-02T10:22:27;101003.55;;;16.68;59.40
77537;BME280;67783;51.656;16.106;2024-03-02T10:25:32;101009.23;;;16.65;57.86
77537;BME280;67783;51.656;16.106;2024-03-02T10:28:35;101002.09;;;16.74;57.97
77537;BME280;67783;51.656;16.106;2024-03-02T10:31:40;100996.71;;;16.64;56.51
77537;BME280;67783;51.656;16.106;2024-03-02T10:34:46;100996.42;;;16.67;54.41
77537;BME280;67783;51.656;16.106;2024-03-02T10:37:52;100997.25;;;16.77;58.11
77537;BME280;67783;51.656;16.106;2024-03-02T10:40:55;100991.56;;;16.80;57.35
77537;BME280;67783;51.656;16.106;2024-03-02T10:44:01;100992.26;;;16.92;57.89
77537;BME280;67783;51.656;16.106;2024-03-02T10:47:05;100995.08;;;17.00;57.48
77537;BME280;67783;51.656;16.106;2024-03-02T10:50:08;100995.51;;;17.05;53.43
77537;BME280;67783;51.656;16.106;2024-03-02T10:53:10;100992.49;;;17.18;57.25
77537;BME280;67783;51.656;16.106;2024-03-02T10:56:16;100997.47;;;17.22;54.88
77537;BME280;67783;51.656;16.106;2024-03-02T10:59:36;100999.27;;;17.31;53.89
77537;BME280;67783;51.656;16.106;2024-03-02T11:02:49;100999.22;;;17.50;56.76
77537;BME280;67783;51.656;16.106;2024-03-02T11:05:51;100989.61;;;17.56;55.65
77537;BME280;67783;51.656;16.106;2024-03-02T11:09:06;100978.35;;;17.61;51.77
77537;BME280;67783;51.656;16.106;2024-03-02T11:12:13;100985.18;;;17.65;53.42
77537;BME280;67783;51.656;16.106;2024-03-02T11:15:18;100991.91;;;17.61;54.10
77537;BME280;67783;51.656;16.106;2024-03-02T11:18:29;100988.16;;;17.71;51.54
77537;BME280;67783;51.656;16.106;2024-03-02T11:21:34;100983.24;;;17.84;55.40
77537;BME280;67783;51.656;16.106;2024-03-02T11:24:37;100987.04;;;17.91;54.10
77537;BME280;67783;51.656;16.106;2024-03-02T11:30:54;100988.30;;;17.97;53.37
77537;BME280;67783;51.656;16.106;2024-03-02T11:37:12;100981.58;;;18.01;54.60
77537;BME280;67783;51.656;16.106;2024-03-02T11:40:13;100986.68;;;18.04;53.48
77537;BME280;67783;51.656;16.106;2024-03-02T11:43:28;100977.69;;;18.04;52.15
77537;BME280;67783;51.656;16.106;2024-03-02T11:46:30;100983.24;;;17.84;52.65
77537;BME280;67783;51.656;16.106;2024-03-02T11:49:41;100989.72;;;17.74;53.36
77537;BME280;67783;51.656;16.106;2024-03-02T11:52:52;100978.08;;;17.64;51.20
77537;BME280;67783;51.656;16.106;2024-03-02T11:55:55;100983.09;;;17.59;53.56
77537;BME280;67783;51.656;16.106;2024-03-02T11:58:56;100991.53;;;17.46;53.38
77537;BME280;67783;51.656;16.106;2024-03-02T12:01:59;100983.63;;;17.52;54.27
77537;BME280;67783;51.656;16.106;2024-03-02T12:05:03;100986.07;;;17.56;53.43
77537;BME280;67783;51.656;16.106;2024-03-02T12:08:12;100978.53;;;17.49;51.49
77537;BME280;67783;51.656;16.106;2024-03-02T12:11:14;100980.93;;;17.52;53.02
77537;BME280;67783;51.656;16.106;2024-03-02T12:14:16;100982.95;;;17.50;53.17
77537;BME280;67783;51.656;16.106;2024-03-02T12:17:18;100980.23;;;17.50;53.63
77537;BME280;67783;51.656;16.106;2024-03-02T12:20:20;100985.23;;;17.55;53.52
77537;BME280;67783;51.656;16.106;2024-03-02T12:23:21;100984.50;;;17.63;52.60
77537;BME280;67783;51.656;16.106;2024-03-02T12:26:23;100981.65;;;17.54;52.46
77537;BME280;67783;51.656;16.106;2024-03-02T12:29:28;100982.78;;;17.62;51.46
77537;BME280;67783;51.656;16.106;2024-03-02T12:32:30;100978.45;;;17.69;52.96
77537;BME280;67783;51.656;16.106;2024-03-02T12:35:31;100958.35;;;17.34;52.18
77537;BME280;67783;51.656;16.106;2024-03-02T12:38:33;100984.63;;;17.61;52.35
77537;BME280;67783;51.656;16.106;2024-03-02T12:41:36;100977.95;;;17.56;53.01
77537;BME280;67783;51.656;16.106;2024-03-02T12:44:49;100977.36;;;17.62;51.34
77537;BME280;67783;51.656;16.106;2024-03-02T12:47:50;100969.32;;;17.70;52.88
77537;BME280;67783;51.656;16.106;2024-03-02T12:50:54;100974.16;;;17.76;52.80
77537;BME280;67783;51.656;16.106;2024-03-02T12:55:45;100971.27;;;17.77;51.74
77537;BME280;67783;51.656;16.106;2024-03-02T12:58:46;100971.08;;;17.61;51.79
77537;BME280;67783;51.656;16.106;2024-03-02T13:01:52;100969.02;;;17.73;53.38
77537;BME280;67783;51.656;16.106;2024-03-02T13:04:53;100967.12;;;17.83;53.24
77537;BME280;67783;51.656;16.106;2024-03-02T13:08:06;100965.89;;;17.95;51.64
77537;BME280;67783;51.656;16.106;2024-03-02T13:11:08;100959.96;;;18.09;52.99
77537;BME280;67783;51.656;16.106;2024-03-02T13:14:11;100952.81;;;18.08;52.47
77537;BME280;67783;51.656;16.106;2024-03-02T13:17:12;100959.50;;;18.14;52.76
77537;BME280;67783;51.656;16.106;2024-03-02T13:20:15;100967.78;;;18.12;52.88
77537;BME280;67783;51.656;16.106;2024-03-02T13:23:26;100971.27;;;18.05;50.31
77537;BME280;67783;51.656;16.106;2024-03-02T13:26:27;100965.98;;;18.03;52.05
77537;BME280;67783;51.656;16.106;2024-03-02T13:29:29;100966.30;;;18.00;52.01
77537;BME280;67783;51.656;16.106;2024-03-02T13:32:30;100967.75;;;17.94;52.29
77537;BME280;67783;51.656;16.106;2024-03-02T13:35:32;100970.59;;;17.75;51.90
77537;BME280;67783;51.656;16.106;2024-03-02T13:38:33;100967.88;;;17.75;52.75
77537;BME280;67783;51.656;16.106;2024-03-02T13:41:35;100967.92;;;17.66;51.84
77537;BME280;67783;51.656;16.106;2024-03-02T13:44:42;100978.45;;;17.69;50.94
77537;BME280;67783;51.656;16.106;2024-03-02T13:47:48;100973.34;;;17.66;52.44
77537;BME280;67783;51.656;16.106;2024-03-02T13:50:50;100978.53;;;17.49;52.34
77537;BME280;67783;51.656;16.106;2024-03-02T13:53:51;100973.10;;;17.49;52.52
77537;BME280;67783;51.656;16.106;2024-03-02T13:56:53;100969.13;;;17.44;52.77
77537;BME280;67783;51.656;16.106;2024-03-02T14:00:01;100977.70;;;17.39;52.16
77537;BME280;67783;51.656;16.106;2024-03-02T14:03:05;100973.03;;;17.32;53.25
77537;BME280;67783;51.656;16.106;2024-03-02T14:06:07;100979.20;;;17.24;52.34
77537;BME280;67783;51.656;16.106;2024-03-02T14:09:08;100980.34;;;17.22;53.28
77537;BME280;67783;51.656;16.106;2024-03-02T14:12:10;100976.48;;;17.24;53.47
77537;BME280;67783;51.656;16.106;2024-03-02T14:15:22;100980.77;;;17.27;53.57
77537;BME280;67783;51.656;16.106;2024-03-02T14:18:25;100912.00;;;16.91;54.24
77537;BME280;67783;51.656;16.106;2024-03-02T14:21:27;100974.63;;;17.25;54.25
77537;BME280;67783;51.656;16.106;2024-03-02T14:24:28;100973.35;;;17.19;54.42
77537;BME280;67783;51.656;16.106;2024-03-02T14:27:30;100968.54;;;17.13;54.28
77537;BME280;67783;51.656;16.106;2024-03-02T14:30:42;100968.85;;;17.10;54.01
77537;BME280;67783;51.656;16.106;2024-03-02T14:33:43;100964.42;;;17.09;54.46
77537;BME280;67783;51.656;16.106;2024-03-02T14:36:45;100972.12;;;17.04;54.45
77537;BME280;67783;51.656;16.106;2024-03-02T14:39:46;100970.41;;;17.03;54.74
77537;BME280;67783;51.656;16.106;2024-03-02T14:42:47;100969.30;;;16.96;54.91
77537;BME280;67783;51.656;16.106;2024-03-02T14:45:49;100963.88;;;16.96;55.15
77537;BME280;67783;51.656;16.106;2024-03-02T14:48:51;100963.45;;;16.91;55.29
77537;BME280;67783;51.656;16.106;2024-03-02T14:51:56;100967.76;;;16.84;55.37
77537;BME280;67783;51.656;16.106;2024-03-02T14:54:58;100953.36;;;16.83;55.56
77537;BME280;67783;51.656;16.106;2024-03-02T14:58:00;100955.95;;;16.75;55.89
77537;BME280;67783;51.656;16.106;2024-03-02T15:01:02;100948.67;;;16.76;55.93
77537;BME280;67783;51.656;16.106;2024-03-02T15:04:04;100951.09;;;16.69;56.17
77537;BME280;67783;51.656;16.106;2024-03-02T15:07:06;100954.39;;;16.73;56.16
77537;BME280;67783;51.656;16.106;2024-03-02T15:10:07;100948.98;;;16.73;56.21
77537;BME280;67783;51.656;16.106;2024-03-02T15:13:12;100943.43;;;16.65;56.41
77537;BME280;67783;51.656;16.106;2024-03-02T15:16:14;100954.26;;;16.65;56.56
77537;BME280;67783;51.656;16.106;2024-03-02T15:19:15;100947.56;;;16.59;56.84
77537;BME280;67783;51.656;16.106;2024-03-02T15:22:17;100948.55;;;16.58;56.85
77537;BME280;67783;51.656;16.106;2024-03-02T15:25:18;100942.84;;;16.51;57.18
77537;BME280;67783;51.656;16.106;2024-03-02T15:28:20;100944.82;;;16.49;57.25
77537;BME280;67783;51.656;16.106;2024-03-02T15:31:21;100944.55;;;16.43;57.38
77537;BME280;67783;51.656;16.106;2024-03-02T15:34:27;100942.57;;;16.35;57.58
77537;BME280;67783;51.656;16.106;2024-03-02T15:37:28;100952.97;;;16.30;57.62
77537;BME280;67783;51.656;16.106;2024-03-02T15:40:29;100954.53;;;16.23;57.93
77537;BME280;67783;51.656;16.106;2024-03-02T15:43:31;100952.81;;;16.22;57.92
77537;BME280;67783;51.656;16.106;2024-03-02T15:46:33;100941.98;;;16.12;58.16
77537;BME280;67783;51.656;16.106;2024-03-02T15:49:36;100948.24;;;16.13;58.08
77537;BME280;67783;51.656;16.106;2024-03-02T15:52:37;100947.81;;;16.08;58.30
77537;BME280;67783;51.656;16.106;2024-03-02T15:55:42;100949.38;;;16.01;58.80
77537;BME280;67783;51.656;16.106;2024-03-02T15:58:44;100945.52;;;16.03;58.39
77537;BME280;67783;51.656;16.106;2024-03-02T16:01:46;100953.07;;;16.00;58.61
77537;BME280;67783;51.656;16.106;2024-03-02T16:04:48;100947.66;;;16.00;58.57
77537;BME280;67783;51.656;16.106;2024-03-02T16:07:49;100938.69;;;15.99;58.65
77537;BME280;67783;51.656;16.106;2024-03-02T16:10:51;100941.68;;;15.96;58.50
77537;BME280;67783;51.656;16.106;2024-03-02T16:13:54;100942.95;;;15.92;58.81
77537;BME280;67783;51.656;16.106;2024-03-02T16:16:59;100947.35;;;15.84;59.37